CheckWX is a tool to help pilots better visualize weather data.  It is not intended as a substitute for an official pre-flight weather briefing.

10:24:57 UTC

KACK METAR
Nantucket Memorial Airport
Nantucket, Massachusetts, USA
Current

32 mins ago

KACK 310953Z AUTO 31008KT 10SM CLR 16/12 A2988 RMK AO2 SLP119 T01610117 $
Observed
May-31 @ 09:53 UTC
Wind
  • 310° at 8 KTS
Visibility
Flight Rules
VFR
Cloud Levels
  • Clear skies
Temperature
16°C / 61°F
Dewpoint
12°C / 54°F
Humidity
77%
Altimeter
29.88" Hg
Pressure
1011.82 hPa
Previous

2 hours ago

KACK 310853Z AUTO 32010KT 10SM CLR 16/12 A2986 RMK AO2 SLP111 T01610117 53012 $
Observed
May-31 @ 08:53 UTC
Wind
  • 320° at 10 KTS
Visibility
Flight Rules
VFR
Cloud Levels
  • Clear skies
Temperature
16°C / 61°F
Dewpoint
12°C / 54°F
Humidity
77%
Altimeter
29.86" Hg
Pressure
1011.22 hPa
Previous

3 hours ago

KACK 310753Z AUTO 31010KT 10SM CLR 16/12 A2984 RMK AO2 SLP104 T01610122 $
Observed
May-31 @ 07:53 UTC
Wind
  • 310° at 10 KTS
Visibility
Flight Rules
VFR
Cloud Levels
  • Clear skies
Temperature
16°C / 61°F
Dewpoint
12°C / 54°F
Humidity
77%
Altimeter
29.84" Hg
Pressure
1010.52 hPa